Time;durP1;ratioP1;P1;durP2;ratioP2;P2;SDS_P1;SDS_P2;PMS_P1;PMS_P2;Temp;Humidity;BMP_temperature;BMP_pressure;BME280_temperature;BME280_humidity;BME280_pressure;Samples;Min_cycle;Max_cycle;Signal;HPM_P1;HPM_P2
2023/11/01 00:01:29;;;;;;;;;;;;;;;9.65;78.19;99257.53;4828973;29;19979;-73
2023/11/01 00:03:58;;;;;;;;;;;;;;;9.67;77.89;99261.84;4842874;29;19948;-73
2023/11/01 00:06:24;;;;;;;;;;;;;;;9.67;78.21;99260.13;4846200;29;19924;-73
2023/11/01 00:08:51;;;;;;;;;;;;;;;9.68;77.65;99261.84;4861568;29;19935;-74
2023/11/01 00:11:20;;;;;;;;;;;;;;;9.72;78.00;99262.66;4858476;29;19929;-74
2023/11/01 00:13:46;;;;;;;;;;;;;;;9.72;77.92;99237.53;4859854;29;19935;-73
2023/11/01 00:16:12;;;;;;;;;;;;;;;9.73;78.04;99234.03;4862077;29;20311;-73
2023/11/01 00:18:38;;;;;;;;;;;;;;;9.77;77.95;99229.69;4828039;29;20364;-74
2023/11/01 00:21:04;;;;;;;;;;;;;;;9.79;78.23;99227.94;4847845;29;19923;-73
2023/11/01 00:23:30;;;;;;;;;;;;;;;9.80;78.55;99222.69;4856537;29;19934;-73
2023/11/01 00:25:56;;;;;;;;;;;;;;;9.79;77.92;99218.38;4844894;29;19928;-74
2023/11/01 00:28:22;;;;;;;;;;;;;;;9.84;78.05;99215.69;4816259;29;19924;-73
2023/11/01 00:30:50;;;;;;;;;;;;;;;9.87;78.22;99204.41;4843365;29;19932;-73
2023/11/01 00:33:16;;;;;;;;;;;;;;;9.92;78.51;99205.22;4842458;29;19999;-74
2023/11/01 00:35:43;;;;;;;;;;;;;;;9.94;78.49;99209.50;4841009;29;20011;-73
2023/11/01 00:38:09;;;;;;;;;;;;;;;10.01;78.54;99196.41;4843343;29;19947;-73
2023/11/01 00:40:36;;;;;;;;;;;;;;;10.06;78.46;99199.75;4826716;29;19924;-74
2023/11/01 00:43:05;;;;;;;;;;;;;;;10.09;78.39;99190.19;4841161;29;19924;-73
2023/11/01 00:45:44;;;;;;;;;;;;;;;10.14;78.39;99191.88;4841735;29;19924;-75
2023/11/01 00:48:10;;;;;;;;;;;;;;;10.18;78.64;99178.78;4846971;29;19995;-74
2023/11/01 00:50:36;;;;;;;;;;;;;;;10.25;78.51;99185.59;4833404;29;19956;-74
2023/11/01 00:53:04;;;;;;;;;;;;;;;10.28;78.29;99184.69;4845070;29;20360;-75
2023/11/01 00:55:33;;;;;;;;;;;;;;;10.30;78.08;99185.50;4846478;29;20311;-76
2023/11/01 00:57:59;;;;;;;;;;;;;;;10.34;78.63;99181.09;4860347;29;20034;-76
2023/11/01 01:00:29;;;;;;;;;;;;;;;10.35;78.48;99173.28;4847176;29;19924;-76
2023/11/01 01:02:57;;;;;;;;;;;;;;;10.38;78.30;99182.78;4833023;29;19924;-75
2023/11/01 01:05:23;;;;;;;;;;;;;;;10.40;78.13;99168.88;4848190;29;20341;-76
2023/11/01 01:07:50;;;;;;;;;;;;;;;10.41;78.49;99167.16;4847724;29;19924;-76
2023/11/01 01:10:16;;;;;;;;;;;;;;;10.45;78.24;99174.00;4860011;29;20181;-76
2023/11/01 01:12:45;;;;;;;;;;;;;;;10.49;78.53;99154.84;4846818;29;19928;-77
2023/11/01 01:15:14;;;;;;;;;;;;;;;10.49;78.33;99152.25;4840868;29;20423;-77
2023/11/01 01:17:43;;;;;;;;;;;;;;;10.49;78.32;99156.59;4832127;29;19930;-77
2023/11/01 01:20:15;;;;;;;;;;;;;;;10.48;78.45;99155.72;4850429;29;19924;-76
2023/11/01 01:22:43;;;;;;;;;;;;;;;10.49;78.52;99165.25;4834330;29;19928;-76
2023/11/01 01:25:10;;;;;;;;;;;;;;;10.51;78.33;99167.84;4845402;29;19925;-75
2023/11/01 01:27:36;;;;;;;;;;;;;;;10.53;78.38;99169.50;4828428;29;19932;-76
2023/11/01 01:30:03;;;;;;;;;;;;;;;10.54;78.24;99159.97;4831951;29;19924;-75
2023/11/01 01:32:33;;;;;;;;;;;;;;;10.58;78.28;99159.03;4848537;29;19935;-76
2023/11/01 01:35:02;;;;;;;;;;;;;;;10.62;78.22;99154.63;4848077;29;19924;-75
2023/11/01 01:37:30;;;;;;;;;;;;;;;10.66;78.22;99153.69;4844982;29;19924;-75
2023/11/01 01:39:56;;;;;;;;;;;;;;;10.69;78.65;99146.66;4861454;29;19928;-75
2023/11/01 01:42:22;;;;;;;;;;;;;;;10.70;78.55;99153.59;4827949;29;19924;-76
2023/11/01 01:44:50;;;;;;;;;;;;;;;10.72;78.35;99142.28;4837068;29;19923;-77
2023/11/01 01:47:17;;;;;;;;;;;;;;;10.76;78.37;99134.38;4862101;29;19977;-77
2023/11/01 01:49:43;;;;;;;;;;;;;;;10.78;78.33;99137.81;4845512;29;19924;-74
2023/11/01 01:52:13;;;;;;;;;;;;;;;10.84;78.34;99132.50;4848435;29;20023;-73
2023/11/01 01:54:46;;;;;;;;;;;;;;;10.87;78.26;99133.31;4850220;29;19971;-74
2023/11/01 01:57:21;;;;;;;;;;;;;;;10.91;78.29;99130.59;4845234;29;19931;-74
2023/11/01 01:59:47;;;;;;;;;;;;;;;10.94;78.50;99129.69;4834075;29;19928;-73
2023/11/01 02:02:17;;;;;;;;;;;;;;;10.97;78.51;99120.06;4830449;29;19924;-74
2023/11/01 02:04:44;;;;;;;;;;;;;;;10.99;78.37;99113.09;4834960;29;19924;-74
2023/11/01 02:07:11;;;;;;;;;;;;;;;11.02;78.33;99108.72;4848695;29;19928;-74
2023/11/01 02:09:40;;;;;;;;;;;;;;;11.02;78.45;99104.34;4849585;29;19924;-74
2023/11/01 02:12:09;;;;;;;;;;;;;;;11.04;78.51;99102.56;4864232;29;19953;-74
2023/11/01 02:14:35;;;;;;;;;;;;;;;11.09;78.34;99094.66;4845171;29;19924;-75
2023/11/01 02:17:00;;;;;;;;;;;;;;;11.11;78.32;99095.47;4844090;29;19939;-74
2023/11/01 02:19:29;;;;;;;;;;;;;;;11.12;78.10;99099.78;4849093;29;19928;-76
2023/11/01 02:21:58;;;;;;;;;;;;;;;11.13;78.25;99096.31;4833569;29;19931;-76
2023/11/01 02:24:28;;;;;;;;;;;;;;;11.17;78.45;99097.06;4846784;29;19924;-76
2023/11/01 02:26:54;;;;;;;;;;;;;;;11.20;78.38;99097.00;4849592;29;20422;-78
2023/11/01 02:29:29;;;;;;;;;;;;;;;11.19;78.28;99083.16;4862270;29;19963;-77
2023/11/01 02:32:05;;;;;;;;;;;;;;;11.20;78.08;99091.81;4847275;29;19928;-77
2023/11/01 02:34:31;;;;;;;;;;;;;;;11.21;77.88;99088.31;4832379;29;20483;-77
2023/11/01 02:37:00;;;;;;;;;;;;;;;11.24;77.83;99085.63;4860192;29;20006;-78
2023/11/01 02:39:26;;;;;;;;;;;;;;;11.26;77.83;99087.31;4860346;29;20338;-77
2023/11/01 02:42:01;;;;;;;;;;;;;;;11.26;78.06;99084.69;4836236;29;19953;-76
2023/11/01 02:44:27;;;;;;;;;;;;;;;11.27;78.05;99086.41;4843070;29;20315;-77
2023/11/01 02:46:53;;;;;;;;;;;;;;;11.26;78.03;99081.25;4848517;29;19924;-75
2023/11/01 02:49:22;;;;;;;;;;;;;;;11.27;78.09;99068.19;4865158;29;19959;-74
2023/11/01 02:51:48;;;;;;;;;;;;;;;11.26;77.47;99068.22;4842726;29;20026;-74
2023/11/01 02:54:14;;;;;;;;;;;;;;;11.21;77.85;99057.94;4860819;29;19931;-74
2023/11/01 02:56:40;;;;;;;;;;;;;;;11.22;77.83;99069.19;4818515;29;19928;-73
2023/11/01 02:59:06;;;;;;;;;;;;;;;11.22;77.73;99066.59;4850540;29;19937;-76
2023/11/01 03:01:36;;;;;;;;;;;;;;;11.22;77.96;99077.00;4861622;29;19924;-76
2023/11/01 03:04:11;;;;;;;;;;;;;;;11.22;77.81;99085.69;4844600;29;19954;-74
2023/11/01 03:06:37;;;;;;;;;;;;;;;11.23;78.14;99091.75;4847547;29;19956;-74
2023/11/01 03:09:04;;;;;;;;;;;;;;;11.24;77.83;99086.50;4846757;29;19931;-77
2023/11/01 03:11:29;;;;;;;;;;;;;;;11.23;77.80;99083.94;4823703;29;20321;-74
2023/11/01 03:13:58;;;;;;;;;;;;;;;11.22;77.79;99090.91;4859157;29;19924;-73
2023/11/01 03:16:27;;;;;;;;;;;;;;;11.20;77.79;99078.78;4865064;29;19935;-72
2023/11/01 03:18:55;;;;;;;;;;;;;;;11.18;78.26;99076.22;4843377;29;19924;-76
2023/11/01 03:21:23;;;;;;;;;;;;;;;11.14;77.96;99072.81;4836662;29;19924;-75
2023/11/01 03:23:49;;;;;;;;;;;;;;;11.14;77.77;99079.78;4858112;29;20004;-74
2023/11/01 03:26:15;;;;;;;;;;;;;;;11.12;77.85;99082.44;4829856;29;19966;-80
2023/11/01 03:28:41;;;;;;;;;;;;;;;11.11;77.87;99074.66;4862594;29;20030;-77
2023/11/01 03:31:09;;;;;;;;;;;;;;;11.08;77.96;99072.97;4827175;29;19932;-78
2023/11/01 03:33:36;;;;;;;;;;;;;;;11.07;77.88;99073.00;4843442;29;20023;-73
2023/11/01 03:36:03;;;;;;;;;;;;;;;11.05;77.73;99070.44;4849115;29;20388;-82
2023/11/01 03:38:33;;;;;;;;;;;;;;;11.05;77.84;99069.56;4833989;29;19924;-77
2023/11/01 03:41:06;;;;;;;;;;;;;;;11.05;77.81;99074.78;4842560;29;20019;-75
2023/11/01 03:43:33;;;;;;;;;;;;;;;11.02;78.12;99062.69;4846780;29;20435;-75
2023/11/01 03:46:05;;;;;;;;;;;;;;;10.99;78.06;99057.56;4821384;29;19931;-78
2023/11/01 03:48:36;;;;;;;;;;;;;;;10.98;77.99;99056.72;4844341;29;19974;-79
2023/11/01 03:51:06;;;;;;;;;;;;;;;10.97;77.94;99054.13;4815246;29;19931;-76
2023/11/01 03:53:32;;;;;;;;;;;;;;;10.97;77.86;99049.78;4831418;29;19929;-77
2023/11/01 03:56:05;;;;;;;;;;;;;;;10.99;78.04;99047.13;4830730;29;19967;-77
2023/11/01 03:58:34;;;;;;;;;;;;;;;10.97;78.10;99046.31;4826248;29;19925;-74
2023/11/01 04:01:08;;;;;;;;;;;;;;;10.93;78.12;99048.13;4843925;29;19924;-84
2023/11/01 04:03:35;;;;;;;;;;;;;;;10.92;78.18;99043.81;4812511;29;19924;-76
2023/11/01 04:06:10;;;;;;;;;;;;;;;10.91;78.23;99038.66;4835454;29;19928;-78
2023/11/01 04:08:38;;;;;;;;;;;;;;;10.88;78.17;99039.56;4841095;29;19996;-76
2023/11/01 04:11:06;;;;;;;;;;;;;;;10.85;78.26;99040.50;4814866;29;19992;-73
2023/11/01 04:13:42;;;;;;;;;;;;;;;10.83;78.15;99042.28;4849064;29;20000;-82
2023/11/01 04:16:08;;;;;;;;;;;;;;;10.80;78.00;99033.69;4855672;29;19932;-81
2023/11/01 04:18:37;;;;;;;;;;;;;;;10.78;78.14;99038.91;4833700;29;19924;-82
2023/11/01 04:21:12;;;;;;;;;;;;;;;10.76;78.27;99032.88;4846097;29;19924;-88
2023/11/01 04:23:44;;;;;;;;;;;;;;;10.77;78.41;99024.19;4832449;29;19963;-82
2023/11/01 04:26:13;;;;;;;;;;;;;;;10.77;78.28;99038.97;4832599;29;19925;-86
2023/11/01 04:28:39;;;;;;;;;;;;;;;10.76;78.58;99029.44;4844429;29;20384;-79
2023/11/01 04:31:06;;;;;;;;;;;;;;;10.74;78.16;99026.84;4849373;29;19924;-77
2023/11/01 04:33:34;;;;;;;;;;;;;;;10.73;78.49;99025.16;4851861;29;19963;-81
2023/11/01 04:36:09;;;;;;;;;;;;;;;10.74;78.65;99036.44;4867503;29;19928;-78
2023/11/01 04:38:36;;;;;;;;;;;;;;;10.73;78.61;99032.94;4864366;29;19924;-80
2023/11/01 04:41:09;;;;;;;;;;;;;;;10.75;78.71;99022.53;4847341;29;19940;-78
2023/11/01 04:43:35;;;;;;;;;;;;;;;10.77;78.63;99032.00;4844005;29;20435;-78
2023/11/01 04:46:05;;;;;;;;;;;;;;;10.87;78.50;99024.00;4862035;29;19991;-76
2023/11/01 04:48:31;;;;;;;;;;;;;;;11.02;78.57;99015.00;4847288;29;19955;-77
2023/11/01 04:51:00;;;;;;;;;;;;;;;11.20;78.65;99017.16;4862837;29;19930;-74
2023/11/01 04:53:32;;;;;;;;;;;;;;;11.41;78.36;99020.13;4848284;29;19975;-74
2023/11/01 04:55:58;;;;;;;;;;;;;;;11.66;78.12;99015.16;4833170;29;20276;-74
2023/11/01 04:58:23;;;;;;;;;;;;;;;12.03;78.28;99019.41;4847869;29;20387;-76
2023/11/01 05:00:53;;;;;;;;;;;;;;;12.38;77.95;99015.88;4829543;29;20316;-74
2023/11/01 05:03:22;;;;;;;;;;;;;;;12.70;77.82;99016.66;4843319;29;19955;-73
2023/11/01 05:05:47;;;;;;;;;;;;;;;13.06;77.79;99021.66;4841910;29;19928;-74
2023/11/01 05:08:16;;;;;;;;;;;;;;;13.48;77.34;99015.13;4843776;29;20360;-75
2023/11/01 05:10:54;;;;;;;;;;;;;;;13.85;76.70;99014.72;4830717;29;19980;-75
2023/11/01 05:13:23;;;;;;;;;;;;;;;14.34;76.44;99024.34;4839912;29;19928;-74
2023/11/01 05:15:51;;;;;;;;;;;;;;;14.70;76.10;99012.59;4859127;29;19931;-74
2023/11/01 05:18:18;;;;;;;;;;;;;;;15.03;74.96;99015.66;4832311;29;19924;-73
2023/11/01 05:20:47;;;;;;;;;;;;;;;15.47;74.62;99016.53;4830753;29;19935;-72
2023/11/01 05:23:24;;;;;;;;;;;;;;;16.00;74.50;99017.81;4829745;29;19924;-69
2023/11/01 05:25:50;;;;;;;;;;;;;;;16.48;73.69;99026.19;4834183;29;19964;-74
2023/11/01 05:28:21;;;;;;;;;;;;;;;17.03;73.39;99016.69;4860217;29;19928;-70
2023/11/01 05:30:53;;;;;;;;;;;;;;;17.59;72.45;99011.31;4860891;29;19928;-74
2023/11/01 05:33:21;;;;;;;;;;;;;;;18.01;70.90;99003.97;4846374;29;19935;-72
2023/11/01 05:35:51;;;;;;;;;;;;;;;18.39;69.79;99003.72;4836372;29;19924;-73
2023/11/01 05:38:20;;;;;;;;;;;;;;;18.48;68.37;98971.63;4854223;29;19931;-74
2023/11/01 05:40:47;;;;;;;;;;;;;;;19.27;67.92;98998.00;4847544;29;19943;-74
2023/11/01 05:46:07;;;;;;;;;;;;;;;20.43;64.85;99006.13;4836415;29;20132;-77
2023/11/01 05:48:33;;;;;;;;;;;;;;;20.82;63.84;98999.31;4835480;29;19932;-77
2023/11/01 05:50:59;;;;;;;;;;;;;;;21.41;62.81;99002.56;4856865;29;19924;-75
2023/11/01 05:53:28;;;;;;;;;;;;;;;21.87;60.66;98996.84;4867337;29;19935;-77
2023/11/01 05:55:59;;;;;;;;;;;;;;;22.10;59.51;98997.06;4849430;29;19960;-76
2023/11/01 05:58:28;;;;;;;;;;;;;;;22.26;59.42;98986.25;4837273;29;19937;-75
2023/11/01 06:00:57;;;;;;;;;;;;;;;22.65;58.60;98991.47;4844582;29;19972;-76
2023/11/01 06:03:25;;;;;;;;;;;;;;;22.38;57.58;98997.78;4834466;29;19992;-75
2023/11/01 06:06:03;;;;;;;;;;;;;;;21.55;57.04;98989.25;4846341;29;19924;-74
2023/11/01 06:08:44;;;;;;;;;;;;;;;20.98;57.35;98999.16;4849804;29;19939;-73
2023/11/01 06:11:16;;;;;;;;;;;;;;;21.12;57.90;99007.97;4822808;29;19924;-73
2023/11/01 06:13:42;;;;;;;;;;;;;;;21.11;57.02;99001.88;4860948;29;19924;-73
2023/11/01 06:16:16;;;;;;;;;;;;;;;21.15;57.90;98998.06;4850473;29;20360;-78
2023/11/01 06:18:43;;;;;;;;;;;;;;;21.76;56.69;98983.50;4850390;29;19946;-78
2023/11/01 06:24:07;;;;;;;;;;;;;;;23.75;55.38;98976.28;4849908;29;20233;-77
2023/11/01 06:26:34;;;;;;;;;;;;;;;24.59;53.83;98975.13;4859095;29;19923;-77
2023/11/01 06:29:12;;;;;;;;;;;;;;;24.06;49.78;98978.41;4860182;29;19935;-75
2023/11/01 06:31:39;;;;;;;;;;;;;;;23.20;51.89;98975.13;4838025;29;20000;-76
2023/11/01 06:34:05;;;;;;;;;;;;;;;22.11;51.12;98980.22;4830233;29;19960;-76
2023/11/01 06:36:36;;;;;;;;;;;;;;;21.26;52.17;98993.84;4813110;29;19931;-74
2023/11/01 06:39:09;;;;;;;;;;;;;;;20.69;52.69;98988.63;4841742;29;19925;-74
2023/11/01 06:41:37;;;;;;;;;;;;;;;20.42;53.97;98989.41;4806432;29;19925;-79
2023/11/01 06:44:07;;;;;;;;;;;;;;;20.28;53.94;99000.88;4832517;29;19983;-77
2023/11/01 06:46:33;;;;;;;;;;;;;;;20.09;54.06;98987.94;4813606;29;19941;-75
2023/11/01 06:49:16;;;;;;;;;;;;;;;20.11;53.76;99001.91;4819832;29;19964;-74
2023/11/01 06:51:54;;;;;;;;;;;;;;;20.57;54.16;98990.25;4841417;29;19937;-76
2023/11/01 06:54:28;;;;;;;;;;;;;;;21.64;54.16;98991.31;4816621;29;19948;-74
2023/11/01 06:57:02;;;;;;;;;;;;;;;23.21;52.76;98993.63;4831724;29;19929;-78
2023/11/01 06:59:40;;;;;;;;;;;;;;;24.50;50.28;98982.00;4835582;29;19935;-76
2023/11/01 07:02:13;;;;;;;;;;;;;;;25.67;48.81;98980.56;4826570;29;19977;-74
2023/11/01 07:04:38;;;;;;;;;;;;;;;26.85;46.98;98981.06;4846814;29;20308;-76
2023/11/01 07:07:06;;;;;;;;;;;;;;;27.09;42.97;98969.16;4829295;29;19953;-75
2023/11/01 07:09:41;;;;;;;;;;;;;;;27.42;43.39;98978.56;4842750;29;20273;-75
2023/11/01 07:12:07;;;;;;;;;;;;;;;28.20;43.73;98976.75;4835861;29;19986;-78
2023/11/01 07:14:36;;;;;;;;;;;;;;;29.31;42.27;98978.44;4849637;29;20509;-78
2023/11/01 07:17:04;;;;;;;;;;;;;;;30.22;40.19;98971.03;4856317;29;19996;-82
2023/11/01 07:19:30;;;;;;;;;;;;;;;30.55;39.53;98979.22;4854237;29;20348;-82
2023/11/01 07:21:59;;;;;;;;;;;;;;;30.98;38.35;98968.44;4852600;29;19925;-82
2023/11/01 07:24:30;;;;;;;;;;;;;;;31.21;38.25;98967.81;4822959;29;19931;-74
2023/11/01 07:27:00;;;;;;;;;;;;;;;31.95;36.44;98962.38;4825683;29;20023;-74
2023/11/01 07:29:41;;;;;;;;;;;;;;;32.24;36.70;98963.59;4846747;29;20351;-76
2023/11/01 07:32:10;;;;;;;;;;;;;;;32.36;35.51;98971.34;4831348;29;20020;-76
2023/11/01 07:34:40;;;;;;;;;;;;;;;32.56;35.56;98969.03;4866279;29;20443;-74
2023/11/01 07:37:06;;;;;;;;;;;;;;;32.72;35.22;98970.81;4863293;29;19924;-75
2023/11/01 07:39:35;;;;;;;;;;;;;;;32.88;34.44;98967.19;4847159;29;20050;-74
2023/11/01 07:42:01;;;;;;;;;;;;;;;32.63;34.26;98974.56;4842764;29;19924;-74
2023/11/01 07:44:30;;;;;;;;;;;;;;;32.89;34.17;98963.50;4843758;29;20555;-76
2023/11/01 07:46:59;;;;;;;;;;;;;;;33.15;33.60;98965.00;4866338;29;19924;-74
2023/11/01 07:49:30;;;;;;;;;;;;;;;33.48;33.72;98953.94;4846244;29;19924;-74
2023/11/01 07:51:56;;;;;;;;;;;;;;;34.20;31.96;98960.63;4852099;29;19928;-75
2023/11/01 07:54:22;;;;;;;;;;;;;;;34.45;32.44;98949.53;4861698;29;19931;-73
2023/11/01 07:56:48;;;;;;;;;;;;;;;34.23;32.48;98954.00;4855828;29;20029;-76
2023/11/01 07:59:23;;;;;;;;;;;;;;;32.84;32.95;98957.78;4850881;29;20340;-74
2023/11/01 08:01:54;;;;;;;;;;;;;;;32.58;33.38;98956.25;4851551;29;20399;-74
2023/11/01 08:04:23;;;;;;;;;;;;;;;33.07;32.87;98951.56;4849508;29;19950;-74
2023/11/01 08:06:49;;;;;;;;;;;;;;;33.77;31.77;98958.53;4855511;29;20116;-77
2023/11/01 08:09:22;;;;;;;;;;;;;;;34.11;31.07;98950.13;4850235;29;20004;-77
2023/11/01 08:11:51;;;;;;;;;;;;;;;34.97;31.24;98952.22;4830692;29;19983;-76
2023/11/01 08:14:21;;;;;;;;;;;;;;;35.12;29.90;98936.75;4850846;29;19928;-76
2023/11/01 08:16:47;;;;;;;;;;;;;;;35.03;30.42;98948.72;4864104;29;19935;-77
2023/11/01 08:19:15;;;;;;;;;;;;;;;33.85;29.56;98946.00;4832952;29;19976;-74
2023/11/01 08:21:45;;;;;;;;;;;;;;;32.57;30.74;98958.09;4862831;29;19924;-69
2023/11/01 08:24:10;;;;;;;;;;;;;;;32.28;31.62;98956.91;4863361;29;19924;-70
2023/11/01 08:26:36;;;;;;;;;;;;;;;31.89;30.85;98952.31;4834985;29;20554;-70
2023/11/01 08:29:16;;;;;;;;;;;;;;;30.86;32.09;98949.13;4835426;29;19928;-70
2023/11/01 08:31:42;;;;;;;;;;;;;;;29.76;32.54;98952.50;4861980;29;19929;-70
2023/11/01 08:34:11;;;;;;;;;;;;;;;29.10;33.50;98960.03;4864755;29;19958;-70
2023/11/01 08:37:01;;;;;;;;;;;;;;;28.24;34.27;98957.56;4872008;29;19924;-70
2023/11/01 08:39:28;;;;;;;;;;;;;;;27.72;33.73;98952.69;4837098;29;20031;-70
2023/11/01 08:42:00;;;;;;;;;;;;;;;27.16;35.06;98956.94;4850411;29;19935;-70
2023/11/01 08:44:27;;;;;;;;;;;;;;;27.43;35.40;98956.22;4848526;29;19939;-69
2023/11/01 08:47:01;;;;;;;;;;;;;;;27.46;34.22;98953.28;4848594;29;19924;-68
2023/11/01 08:49:38;;;;;;;;;;;;;;;27.87;34.84;98953.06;4865391;29;19932;-70
2023/11/01 08:52:13;;;;;;;;;;;;;;;27.94;33.81;98946.13;4864339;29;19908;-69
2023/11/01 08:54:40;;;;;;;;;;;;;;;27.89;33.83;98940.41;4848664;29;19970;-71
2023/11/01 08:57:07;;;;;;;;;;;;;;;28.25;33.85;98948.56;4852971;29;20019;-71
2023/11/01 08:59:32;;;;;;;;;;;;;;;28.49;32.62;98941.81;4846175;29;19928;-71
2023/11/01 09:02:02;;;;;;;;;;;;;;;29.31;33.06;98919.50;4846932;29;19925;-70
2023/11/01 09:04:36;;;;;;;;;;;;;;;30.09;32.01;98919.69;4862940;29;20484;-68
2023/11/01 09:07:21;;;;;;;;;;;;;;;30.58;31.84;98919.03;4866040;29;19966;-69
2023/11/01 09:09:53;;;;;;;;;;;;;;;29.67;32.03;98926.66;4865702;29;20035;-68
2023/11/01 09:12:28;;;;;;;;;;;;;;;29.68;32.70;98914.94;4868136;29;20421;-69
2023/11/01 09:14:56;;;;;;;;;;;;;;;30.99;31.50;98905.66;4863821;29;19923;-69
2023/11/01 09:17:30;;;;;;;;;;;;;;;32.00;30.31;98898.13;4838672;29;19967;-69
2023/11/01 09:19:57;;;;;;;;;;;;;;;32.57;29.23;98900.72;4866831;29;19928;-70
2023/11/01 09:22:23;;;;;;;;;;;;;;;33.29;28.23;98902.22;4862090;29;19924;-69
2023/11/01 09:24:48;;;;;;;;;;;;;;;33.28;28.36;98892.44;4860309;29;19924;-71
2023/11/01 09:27:18;;;;;;;;;;;;;;;33.09;29.04;98884.88;4873049;29;20423;-73
2023/11/01 09:29:51;;;;;;;;;;;;;;;33.34;28.85;98880.09;4853655;29;19924;-72
2023/11/01 09:32:18;;;;;;;;;;;;;;;33.73;28.48;98883.59;4849778;29;20246;-70
2023/11/01 09:34:44;;;;;;;;;;;;;;;34.04;27.81;98875.31;4865166;29;20128;-69
2023/11/01 09:37:16;;;;;;;;;;;;;;;34.19;27.58;98886.09;4869112;29;19924;-73
2023/11/01 09:39:44;;;;;;;;;;;;;;;34.08;27.64;98873.09;4858758;29;19987;-71
2023/11/01 09:42:23;;;;;;;;;;;;;;;33.83;27.63;98869.81;4850570;29;20485;-71
2023/11/01 09:45:01;;;;;;;;;;;;;;;33.58;28.03;98862.00;4843526;29;19992;-76
2023/11/01 09:47:29;;;;;;;;;;;;;;;33.70;27.78;98870.47;4853178;29;19924;-73
2023/11/01 09:49:55;;;;;;;;;;;;;;;32.87;27.74;98874.81;4838151;29;19931;-77
2023/11/01 09:52:22;;;;;;;;;;;;;;;30.58;28.93;98876.09;4839166;29;19928;-75
2023/11/01 09:54:52;;;;;;;;;;;;;;;28.80;30.70;98879.09;4869821;29;20516;-76
2023/11/01 09:57:20;;;;;;;;;;;;;;;27.54;32.47;98869.75;4867134;29;19992;-74
2023/11/01 09:59:53;;;;;;;;;;;;;;;26.48;33.97;98877.66;4854720;29;19924;-72
2023/11/01 10:02:21;;;;;;;;;;;;;;;25.49;33.94;98877.28;4851484;29;19980;-70
2023/11/01 10:04:50;;;;;;;;;;;;;;;24.85;35.30;98873.75;4845398;29;19944;-71
2023/11/01 10:07:21;;;;;;;;;;;;;;;24.17;35.92;98872.13;4848252;29;19924;-72
2023/11/01 10:09:47;;;;;;;;;;;;;;;23.56;36.67;98872.47;4836293;29;19962;-68
2023/11/01 10:12:13;;;;;;;;;;;;;;;23.04;37.11;98875.50;4850351;29;19939;-68
2023/11/01 10:14:40;;;;;;;;;;;;;;;22.51;37.82;98878.53;4865626;29;20000;-68
2023/11/01 10:17:06;;;;;;;;;;;;;;;22.05;38.99;98878.22;4848999;29;19965;-73
2023/11/01 10:19:31;;;;;;;;;;;;;;;21.74;39.19;98879.50;4862040;29;19949;-68
2023/11/01 10:22:00;;;;;;;;;;;;;;;21.51;39.98;98866.06;4863762;29;19995;-70
2023/11/01 10:24:30;;;;;;;;;;;;;;;21.16;39.97;98867.53;4851915;29;19934;-78
2023/11/01 10:26:58;;;;;;;;;;;;;;;20.77;40.40;98871.84;4831654;29;20454;-72
2023/11/01 10:29:41;;;;;;;;;;;;;;;20.46;40.94;98887.06;4846837;29;19924;-71
2023/11/01 10:32:10;;;;;;;;;;;;;;;20.08;42.33;98883.25;4836393;29;19936;-69
2023/11/01 10:34:36;;;;;;;;;;;;;;;19.79;42.29;98877.97;4848427;29;19924;-72
2023/11/01 10:37:05;;;;;;;;;;;;;;;19.53;43.18;98869.84;4836176;29;19987;-71
2023/11/01 10:39:36;;;;;;;;;;;;;;;19.39;43.29;98864.56;4852643;29;20380;-74
2023/11/01 10:42:08;;;;;;;;;;;;;;;19.26;43.88;98870.59;4835608;29;19927;-75
2023/11/01 10:44:34;;;;;;;;;;;;;;;19.11;43.92;98868.84;4848425;29;20027;-77
2023/11/01 10:47:01;;;;;;;;;;;;;;;18.93;44.28;98863.69;4838440;29;20047;-76
2023/11/01 10:49:32;;;;;;;;;;;;;;;18.88;44.73;98863.13;4864946;29;19932;-75
2023/11/01 10:51:59;;;;;;;;;;;;;;;18.93;44.71;98863.69;4853154;29;20415;-73
2023/11/01 10:57:07;;;;;;;;;;;;;;;18.72;45.00;98854.41;4822096;29;19958;-71
2023/11/01 10:59:51;;;;;;;;;;;;;;;18.67;45.44;98855.50;4819647;29;19951;-73
2023/11/01 11:02:24;;;;;;;;;;;;;;;18.65;45.39;98854.75;4841609;29;19936;-69
2023/11/01 11:05:13;;;;;;;;;;;;;;;18.58;45.96;98856.06;4823927;29;19929;-72
2023/11/01 11:07:57;;;;;;;;;;;;;;;18.47;46.23;98846.13;4849200;29;19947;-70
2023/11/01 11:10:32;;;;;;;;;;;;;;;18.46;46.45;98844.44;4831659;29;19924;-71
2023/11/01 11:13:20;;;;;;;;;;;;;;;18.36;46.49;98853.78;4848266;29;19943;-73
2023/11/01 11:15:59;;;;;;;;;;;;;;;18.26;47.28;98840.28;4850053;29;19928;-71
2023/11/01 11:18:44;;;;;;;;;;;;;;;18.28;47.32;98832.31;4849731;29;19931;-71
2023/11/01 11:21:36;;;;;;;;;;;;;;;18.28;47.35;98838.41;4847388;29;19936;-71
2023/11/01 11:24:25;;;;;;;;;;;;;;;18.25;47.70;98840.38;4849684;29;19924;-72
2023/11/01 11:26:57;;;;;;;;;;;;;;;18.18;47.82;98834.59;4838747;29;20392;-71
2023/11/01 11:29:42;;;;;;;;;;;;;;;18.19;47.82;98829.25;4834434;29;19928;-71
2023/11/01 11:32:22;;;;;;;;;;;;;;;18.16;47.95;98841.75;4852144;29;19929;-70
2023/11/01 11:34:49;;;;;;;;;;;;;;;18.10;48.35;98835.00;4861459;29;19924;-70
2023/11/01 11:37:19;;;;;;;;;;;;;;;18.09;48.37;98824.56;4851597;29;19987;-71
2023/11/01 11:39:51;;;;;;;;;;;;;;;18.03;48.67;98831.88;4833208;29;19949;-72
2023/11/01 11:42:50;;;;;;;;;;;;;;;18.03;48.73;98821.34;4844203;29;20363;-72
2023/11/01 11:45:25;;;;;;;;;;;;;;;18.01;48.86;98825.00;4776981;29;19925;-70
2023/11/01 11:47:55;;;;;;;;;;;;;;;17.97;49.11;98821.66;4803263;29;19970;-70
2023/11/01 11:50:21;;;;;;;;;;;;;;;17.89;48.78;98818.59;4833693;29;19924;-72
2023/11/01 11:52:59;;;;;;;;;;;;;;;17.82;49.38;98822.50;4842478;29;19934;-70
2023/11/01 11:55:47;;;;;;;;;;;;;;;17.81;49.69;98811.13;4847007;29;19936;-72
2023/11/01 11:58:31;;;;;;;;;;;;;;;17.81;49.71;98802.38;4878916;29;19948;-72
2023/11/01 12:01:00;;;;;;;;;;;;;;;17.80;49.54;98811.19;4857407;29;19934;-71
2023/11/01 12:03:31;;;;;;;;;;;;;;;17.79;49.85;98807.72;4873994;29;19923;-82
2023/11/01 12:06:01;;;;;;;;;;;;;;;17.78;49.78;98806.03;4873024;29;19923;-69
2023/11/01 12:08:35;;;;;;;;;;;;;;;17.87;49.87;98802.91;4886289;29;19970;-73
2023/11/01 12:11:10;;;;;;;;;;;;;;;17.99;49.89;98787.41;4871430;29;19924;-71
2023/11/01 12:13:40;;;;;;;;;;;;;;;18.03;49.73;98784.50;4871774;29;19931;-70
2023/11/01 12:16:07;;;;;;;;;;;;;;;18.05;49.34;98776.53;4887268;29;20322;-69
2023/11/01 12:18:33;;;;;;;;;;;;;;;17.99;49.52;98772.44;4889244;29;21222;-73
2023/11/01 12:21:25;;;;;;;;;;;;;;;17.92;49.51;98771.06;4872517;29;19930;-68
2023/11/01 12:23:54;;;;;;;;;;;;;;;17.86;49.64;98767.00;4872244;29;19924;-70
2023/11/01 12:26:20;;;;;;;;;;;;;;;17.79;49.87;98759.50;4866829;29;20002;-71
2023/11/01 12:28:50;;;;;;;;;;;;;;;17.74;49.99;98763.28;4870881;29;19923;-69
2023/11/01 12:31:16;;;;;;;;;;;;;;;17.69;50.04;98760.03;4888886;29;19924;-70
2023/11/01 12:33:42;;;;;;;;;;;;;;;17.53;50.09;98746.03;4887978;29;19935;-71
2023/11/01 12:36:08;;;;;;;;;;;;;;;17.64;50.15;98762.06;4887514;29;19970;-71
2023/11/01 12:38:43;;;;;;;;;;;;;;;17.61;50.24;98762.22;4870667;29;19924;-71
2023/11/01 12:41:16;;;;;;;;;;;;;;;17.59;50.21;98753.56;4887136;29;20018;-71
2023/11/01 12:43:51;;;;;;;;;;;;;;;17.58;50.21;98758.00;4884895;29;20027;-72
2023/11/01 12:46:23;;;;;;;;;;;;;;;17.55;50.35;98755.53;4870548;29;19979;-71
2023/11/01 12:48:51;;;;;;;;;;;;;;;17.54;50.43;98755.63;4868433;29;20435;-74
2023/11/01 12:51:19;;;;;;;;;;;;;;;17.50;50.35;98748.81;4842582;29;19924;-73
2023/11/01 12:53:58;;;;;;;;;;;;;;;17.45;50.40;98741.16;4855954;29;20351;-72
2023/11/01 12:56:30;;;;;;;;;;;;;;;17.38;50.63;98747.69;4876710;29;19934;-73
2023/11/01 12:58:56;;;;;;;;;;;;;;;17.36;50.57;98739.88;4868167;29;19924;-73
2023/11/01 13:01:22;;;;;;;;;;;;;;;17.34;50.83;98748.78;4873238;29;19927;-73
2023/11/01 13:03:51;;;;;;;;;;;;;;;17.28;50.87;98752.59;4889175;29;19927;-72
2023/11/01 13:06:18;;;;;;;;;;;;;;;17.22;50.81;98753.75;4881390;29;19923;-73
2023/11/01 13:08:55;;;;;;;;;;;;;;;17.15;50.99;98744.53;4886760;29;19924;-72
2023/11/01 13:11:23;;;;;;;;;;;;;;;17.09;51.00;98745.69;4886656;29;19923;-72